Nearby METAR Reports

Meteorological Terminal Air Report (METAR)

K3I2 - Pt Pleasant, West Virginia, USA
Distance from station: S 11mi, 18km
Updated: Fri, 27-Apr-2018 3:55am EDT
Mostly cloudy
Mostly cloudy
 Wind from calm
Wind: Calm
Temperature: 48°F , 9°C
Dew Point: 46°F , 8°C
Humidity: 94%
Barometer: 29.79 inHg , 1008.8 hPa
Clouds: Mostly cloudy
Visibility: 10 miles , 16 km
Cloud details: Mostly cloudy 5000 ft
Mostly cloudy 10000 ft
2018/04/27 07:55 K3I2 270755Z AUTO 00000KT 10SM BKN050 BKN100 09/08 A2979 RMK AO2 T00900080
KUNI - Athens, Ohio, USA
Distance from station: NW 13mi, 21km
Updated: Fri, 27-Apr-2018 4:15am EDT
Clear
Clear
 Wind from calm
Wind: Calm
Temperature: 48°F , 9°C
Dew Point: 48°F , 9°C
Humidity: 100%
Barometer: 29.78 inHg , 1008.5 hPa
Clouds: Clear
Visibility: 10 miles , 16 km
2018/04/27 08:15 KUNI 270815Z AUTO 00000KT 10SM CLR 09/09 A2978 RMK AO2 T00880088
 
KPKB - Parkersburg, West Virginia, USA
Distance from station: ENE 40mi, 65km
Updated: Fri, 27-Apr-2018 3:53am EDT
Clear
Clear
 Wind from calm
Wind: Calm
Temperature: 46°F , 8°C
Dew Point: 43°F , 6°C
Humidity: 87%
Barometer: 29.80 inHg , 1009.1 hPa
Clouds: Clear
Visibility: 10 miles , 16 km
2018/04/27 07:53 KPKB 270753Z AUTO 00000KT 10SM CLR 08/06 A2980 RMK AO2 SLP089 T00780056 $
KCRW - Charleston, West Virginia, USA
Distance from station: SSE 55mi, 88km
Updated: Fri, 27-Apr-2018 3:54am EDT
Light rain, Overcast
Light rain, Overcast
 Wind from calm
Wind: Calm
Temperature: 52°F , 11°C
Dew Point: 48°F , 9°C
Humidity: 88%
Barometer: 29.77 inHg , 1008.1 hPa
Summary: Light rain
Clouds: Overcast
Visibility: 10 miles , 16 km
Cloud details: Mostly cloudy 5000 ft
Overcast 6500 ft
2018/04/27 07:54 KCRW 270754Z 00000KT 10SM -RA BKN050 OVC065 11/09 A2977 RMK AO2 RAB31 SLP079 P0000 T01110094 $
 
KHTS - Huntington, West Virginia, USA
Distance from station: SSW 55mi, 89km
Updated: Fri, 27-Apr-2018 3:51am EDT
Overcast
Overcast
 Wind from WSW
Wind: WSW 5 mph , 7 km/h
Temperature: 54°F , 12°C
Dew Point: 45°F , 7°C
Humidity: 72%
Barometer: 29.79 inHg , 1008.8 hPa
Clouds: Overcast
Visibility: 10 miles , 16 km
Cloud details: Overcast 5000 ft
2018/04/27 07:51 KHTS 270751Z 25004KT 10SM OVC050 12/07 A2979 RMK AO2 RAB11E25 SLP082 P0000 T01220072
KLHQ - Lancaster, Ohio, USA
Distance from station: NW 56mi, 91km
Updated: Fri, 27-Apr-2018 3:53am EDT
Few Clouds
Few Clouds
 Wind from calm
Wind: Calm
Temperature: 46°F , 8°C
Dew Point: 45°F , 7°C
Humidity: 93%
Barometer: 29.77 inHg , 1008.1 hPa
Clouds: Few Clouds
Visibility: 10 miles , 16 km
Cloud details: Few Clouds 6000 ft
2018/04/27 07:53 KLHQ 270753Z AUTO 00000KT 10SM FEW060 08/07 A2977 RMK AO2 SLP081 T00830072
 
KZZV - Zanesville, Ohio, USA
Distance from station: N 61mi, 99km
Updated: Fri, 27-Apr-2018 3:53am EDT
Mostly cloudy
Mostly cloudy
 Wind from calm
Wind: Calm
Temperature: 48°F , 9°C
Dew Point: 45°F , 7°C
Humidity: 87%
Barometer: 29.77 inHg , 1008.1 hPa
Clouds: Mostly cloudy
Visibility: 10 miles , 16 km
Cloud details: Few Clouds 5500 ft
Mostly cloudy 7000 ft
2018/04/27 07:53 KZZV 270753Z AUTO 00000KT 10SM FEW055 BKN070 09/07 A2977 RMK AO2 SLP079 T00940067
KLCK - Rickenbacker Ang, Ohio, USA
Distance from station: NW 68mi, 110km
Updated: Fri, 27-Apr-2018 3:55am EDT
Clear
Clear
 Wind from calm
Wind: Calm
Temperature: 52°F , 11°C
Dew Point: 45°F , 7°C
Humidity: 77%
Barometer: 29.76 inHg , 1007.8 hPa
Clouds: Clear
Visibility: 10 miles , 16 km
2018/04/27 07:55 KLCK 270755Z AUTO 00000KT 10SM CLR 11/07 A2976 RMK AO2 T01050066
 
KVTA - Newark, Ohio, USA
Distance from station: NNW 68mi, 110km
Updated: Fri, 27-Apr-2018 3:54am EDT
Clear
Clear
 Wind from calm
Wind: Calm
Temperature: 48°F , 9°C
Dew Point: 45°F , 7°C
Humidity: 87%
Barometer: 29.77 inHg , 1008.1 hPa
Clouds: Clear
Visibility: 10 miles , 16 km
2018/04/27 07:54 KVTA 270754Z AUTO 00000KT 10SM CLR 09/07 A2977 RMK AO2 SLP079 T00890067